Ferry Katsuragi — JI3611 — position and weather

sailwx.info

Track history (hours):
 
Tides and Currents Weather Stations Pressure Air Temp Water Temp Dewpoint Dewpoint Depression Visibility Wind Speed Wind Dir Waves Ship Positions

Ferry Katsuragi

Last reported at 2016-Dec-09 22:33 UTC. Time now 2016-Dec-09 23:18 UTC.
Position N 34°12' E 135°05'.

Length 108 m; draft 4 m.

Type: Passenger vessel. MMSI: 431301245.

Date/timePositionNaut miles runAvg speedWind from/ knotsBaromVisibWave heightAir tempDewpointWater temp
2016-Dec-09 22:33N 34°12' E 135°05'7 1.7
2016-Dec-09 18:26N 34°10' E 134°57'1011.3
2016-Dec-09 17:33N 34°13' E 135°09'0 0.0
2016-Dec-09 16:33N 34°13' E 135°09'0 0.0
2016-Dec-09 15:33N 34°13' E 135°09'7 6.6
2016-Dec-09 14:32N 34°11' E 135°01'11 3.6
2016-Dec-09 11:30N 34°06' E 134°49'1414.7
2016-Dec-09 10:33N 34°12' E 135°04'4 4.0
2016-Dec-09 09:33N 34°13' E 135°09'10 2.3
2016-Dec-09 05:25N 34°11' E 134°57'1011.4
2016-Dec-09 04:33N 34°13' E 135°09'6 6.2
2016-Dec-09 03:34N 34°12' E 135°01'4 1.2
2016-Dec-09 00:11N 34°10' E 134°57'1015.1
2016-Dec-08 23:33N 34°13' E 135°08'2 1.6
2016-Dec-08 22:33N 34°13' E 135°06'9 2.3
2016-Dec-08 18:30N 34°09' E 134°56'1112.0
2016-Dec-08 17:34N 34°13' E 135°09'0 0.0
2016-Dec-08 16:34N 34°13' E 135°09'0 0.0
2016-Dec-08 15:34N 34°13' E 135°09'7 6.7
2016-Dec-08 14:33N 34°11' E 135°01'10 3.3
2016-Dec-08 11:26N 34°07' E 134°49'1314.8
2016-Dec-08 10:33N 34°12' E 135°04'4 4.0
2016-Dec-08 09:34N 34°13' E 135°09'10 2.4
2016-Dec-08 05:26N 34°10' E 134°57'1011.4
2016-Dec-08 04:33N 34°13' E 135°09'6 6.1
2016-Dec-08 03:33N 34°11' E 135°02'5 1.5
2016-Dec-08 00:19N 34°09' E 134°56'1114.6
2016-Dec-07 23:33N 34°13' E 135°09'2 1.6
2016-Dec-07 22:33N 34°13' E 135°07'19 5.6
2016-Dec-07 19:12N 34°05' E 134°46'1113.6
2016-Dec-07 18:24N 34°09' E 134°58'1011.3
2016-Dec-07 17:33N 34°13' E 135°09'0 0.0
2016-Dec-07 16:33N 34°13' E 135°09'0 0.0
2016-Dec-07 15:34N 34°13' E 135°09'7 6.6
2016-Dec-07 14:33N 34°11' E 135°01'10 3.4
2016-Dec-07 11:27N 34°07' E 134°49'1314.7
2016-Dec-07 10:34N 34°12' E 135°04'4 3.9
2016-Dec-07 09:33N 34°13' E 135°09'19 5.6
2016-Dec-07 06:05N 34°06' E 134°47'1114.4
2016-Dec-07 05:21N 34°10' E 134°58'911.2
2016-Dec-07 04:34N 34°13' E 135°09'6 6.0
2016-Dec-07 03:33N 34°12' E 135°02'4 1.3
2016-Dec-07 00:13N 34°09' E 134°57'1014.8
2016-Dec-06 23:33N 34°13' E 135°08'1 1.4
2016-Dec-06 22:33N 34°13' E 135°06'7 1.6
2016-Dec-06 18:21N 34°11' E 134°58'910.8
2016-Dec-06 17:33N 34°13' E 135°09'0 0.0
2016-Dec-06 16:33N 34°13' E 135°09'0 0.0
2016-Dec-06 15:33N 34°13' E 135°09'7 6.5
2016-Dec-06 14:34N 34°11' E 135°01'2 0.6
2016-Dec-06 10:33N 34°12' E 135°04'4 3.9
2016-Dec-06 09:33N 34°13' E 135°08'20 5.9
2016-Dec-06 06:09N 34°06' E 134°46'1014.0
2016-Dec-06 05:25N 34°10' E 134°57'1011.6
2016-Dec-06 04:33N 34°13' E 135°09'6 6.3
2016-Dec-06 03:33N 34°11' E 135°01'6 2.0
2016-Dec-06 00:23N 34°09' E 134°54'1315.3
2016-Dec-05 23:33N 34°13' E 135°09'1 1.1
2016-Dec-05 22:34N 34°13' E 135°07'19 5.6
2016-Dec-05 19:11N 34°06' E 134°46'913.5
2016-Dec-05 18:31N 34°09' E 134°56'1111.4
2016-Dec-05 17:33N 34°13' E 135°09'0 0.0
2016-Dec-05 16:33N 34°13' E 135°09'0 0.0
2016-Dec-05 15:33N 34°13' E 135°09'7 6.6
2016-Dec-05 14:33N 34°11' E 135°01'11 3.4
2016-Dec-05 11:28N 34°07' E 134°49'1314.9
2016-Dec-05 10:33N 34°13' E 135°04'4 3.7
2016-Dec-05 09:34N 34°13' E 135°09'10 2.3
2016-Dec-05 05:24N 34°10' E 134°57'1011.4
2016-Dec-05 04:33N 34°13' E 135°09'6 5.6
2016-Dec-05 03:33N 34°11' E 135°02'4 1.3
2016-Dec-05 00:14N 34°10' E 134°57'1014.3
2016-Dec-04 23:33N 34°13' E 135°08'2 2.1
2016-Dec-04 22:33N 34°13' E 135°06'21 6.7
2016-Dec-04 19:25N 34°04' E 134°43'1213.3
2016-Dec-04 18:30N 34°09' E 134°56'1111.6
2016-Dec-04 17:33N 34°13' E 135°09'0 0.0
2016-Dec-04 16:33N 34°13' E 135°09'0 0.0
2016-Dec-04 15:33N 34°13' E 135°09'7 6.6
2016-Dec-04 14:33N 34°11' E 135°01'12 3.8
2016-Dec-04 11:31N 34°06' E 134°48'1414.7
2016-Dec-04 10:33N 34°12' E 135°04'4 4.2
2016-Dec-04 09:34N 34°13' E 135°09'21 6.2
2016-Dec-04 06:13N 34°06' E 134°45'1013.4
2016-Dec-04 05:27N 34°10' E 134°57'1011.7
2016-Dec-04 04:33N 34°13' E 135°09'6 5.8
2016-Dec-04 03:33N 34°11' E 135°02'10 3.2
2016-Dec-04 00:33N 34°08' E 134°51'1515.2
2016-Dec-03 23:33N 34°13' E 135°08'2 1.6
2016-Dec-03 22:33N 34°13' E 135°06'19 5.6
2016-Dec-03 19:10N 34°06' E 134°45'914.2
2016-Dec-03 18:32N 34°09' E 134°55'1212.0
2016-Dec-03 17:34N 34°13' E 135°09'0 0.0
2016-Dec-03 16:33N 34°13' E 135°09'0 0.0
2016-Dec-03 15:33N 34°13' E 135°09'6 5.7
2016-Dec-03 14:33N 34°12' E 135°02'11 3.5
2016-Dec-03 11:26N 34°08' E 134°50'1314.6
2016-Dec-03 10:34N 34°12' E 135°04'4 3.9
2016-Dec-03 09:33N 34°13' E 135°09'12 2.9
2016-Dec-03 05:31N 34°08' E 134°56'1212.0
2016-Dec-03 04:33N 34°13' E 135°09'6 5.9
2016-Dec-03 03:33N 34°11' E 135°02'6 1.8
2016-Dec-03 00:18N 34°09' E 134°55'1115.2
2016-Dec-02 23:33N 34°13' E 135°08'2 2.1
2016-Dec-02 22:33N 34°13' E 135°06'9 2.1
2016-Dec-02 18:31N 34°10' E 134°56'1111.5
2016-Dec-02 17:33N 34°13' E 135°09'0 0.0
2016-Dec-02 16:33N 34°13' E 135°09'0 0.0
2016-Dec-02 15:33N 34°13' E 135°09'7 6.7
2016-Dec-02 14:28N 34°11' E 135°00'4 1.1
2016-Dec-02 11:04N 34°10' E 134°56'714.6
2016-Dec-02 10:33N 34°12' E 135°04'4 3.7
2016-Dec-02 09:33N 34°13' E 135°09'20 6.0
2016-Dec-02 06:11N 34°06' E 134°46'1014.7
2016-Dec-02 05:29N 34°10' E 134°57'1010.8
2016-Dec-02 04:33N 34°13' E 135°09'6 5.7
2016-Dec-02 03:33N 34°12' E 135°02'2 0.7
2016-Dec-02 00:03N 34°11' E 134°59'714.9
2016-Dec-01 23:34N 34°13' E 135°08'2 1.8
2016-Dec-01 22:33N 34°12' E 135°06'8 1.9
2016-Dec-01 18:25N 34°09' E 134°57'1011.7
2016-Dec-01 17:33N 34°13' E 135°09'0 0.0
2016-Dec-01 16:34N 34°13' E 135°09'0 0.0
2016-Dec-01 15:33N 34°13' E 135°09'7 6.8
2016-Dec-01 14:33N 34°11' E 135°01'11 3.7
2016-Dec-01 11:32N 34°07' E 134°48'1414.4
2016-Dec-01 10:33N 34°12' E 135°04'4 4.0
2016-Dec-01 09:34N 34°13' E 135°09'10 2.6
2016-Dec-01 05:29N 34°09' E 134°57'1011.3
2016-Dec-01 04:34N 34°13' E 135°09'6 6.3
2016-Dec-01 03:33N 34°11' E 135°01'6 1.9
2016-Dec-01 00:20N 34°08' E 134°55'1215.3
2016-Nov-30 23:33N 34°13' E 135°08'1 1.5
2016-Nov-30 22:33N 34°13' E 135°06'9 2.2
2016-Nov-30 18:30N 34°09' E 134°56'1111.6
2016-Nov-30 17:33N 34°13' E 135°09'0 0.0
2016-Nov-30 16:33N 34°13' E 135°09'0 0.0
2016-Nov-30 15:33N 34°13' E 135°09'6 5.8
2016-Nov-30 14:33N 34°11' E 135°02'12 3.8
2016-Nov-30 11:30N 34°07' E 134°49'1414.7
2016-Nov-30 10:33N 34°12' E 135°04'4 3.9
2016-Nov-30 09:33N 34°13' E 135°09'10 2.3
2016-Nov-30 05:25N 34°10' E 134°57'1011.2
2016-Nov-30 04:33N 34°13' E 135°09'6 6.4
2016-Nov-30 03:33N 34°11' E 135°01'2 0.5
2016-Nov-30 00:03N 34°11' E 134°59'815.1
2016-Nov-29 23:34N 34°13' E 135°08'1 1.0
2016-Nov-29 22:33N 34°13' E 135°07'  
Track history (hours):
 
Tides and Currents Weather Stations Pressure Air Temp Water Temp Dewpoint Dewpoint Depression Visibility Wind Speed Wind Dir Waves Ship Positions

Ferry Katsuragi

Last reported at 2016-Dec-09 22:33 UTC. Time now 2016-Dec-09 23:18 UTC.
Position N 34°12' E 135°05'.

Length 108 m; draft 4 m.

Type: Passenger vessel. MMSI: 431301245.

Date/timePositionNaut miles runAvg speedWind from/ knotsBaromVisibWave heightAir tempDewpointWater temp
2016-Dec-09 22:33N 34°12' E 135°05'7 1.7
2016-Dec-09 18:26N 34°10' E 134°57'1011.3
2016-Dec-09 17:33N 34°13' E 135°09'0 0.0
2016-Dec-09 16:33N 34°13' E 135°09'0 0.0
2016-Dec-09 15:33N 34°13' E 135°09'7 6.6
2016-Dec-09 14:32N 34°11' E 135°01'11 3.6
2016-Dec-09 11:30N 34°06' E 134°49'1414.7
2016-Dec-09 10:33N 34°12' E 135°04'4 4.0
2016-Dec-09 09:33N 34°13' E 135°09'10 2.3
2016-Dec-09 05:25N 34°11' E 134°57'1011.4
2016-Dec-09 04:33N 34°13' E 135°09'6 6.2
2016-Dec-09 03:34N 34°12' E 135°01'4 1.2
2016-Dec-09 00:11N 34°10' E 134°57'1015.1
2016-Dec-08 23:33N 34°13' E 135°08'2 1.6
2016-Dec-08 22:33N 34°13' E 135°06'9 2.3
2016-Dec-08 18:30N 34°09' E 134°56'1112.0
2016-Dec-08 17:34N 34°13' E 135°09'0 0.0
2016-Dec-08 16:34N 34°13' E 135°09'0 0.0
2016-Dec-08 15:34N 34°13' E 135°09'7 6.7
2016-Dec-08 14:33N 34°11' E 135°01'10 3.3
2016-Dec-08 11:26N 34°07' E 134°49'1314.8
2016-Dec-08 10:33N 34°12' E 135°04'4 4.0
2016-Dec-08 09:34N 34°13' E 135°09'10 2.4
2016-Dec-08 05:26N 34°10' E 134°57'1011.4
2016-Dec-08 04:33N 34°13' E 135°09'6 6.1
2016-Dec-08 03:33N 34°11' E 135°02'5 1.5
2016-Dec-08 00:19N 34°09' E 134°56'1114.6
2016-Dec-07 23:33N 34°13' E 135°09'2 1.6
2016-Dec-07 22:33N 34°13' E 135°07'19 5.6
2016-Dec-07 19:12N 34°05' E 134°46'1113.6
2016-Dec-07 18:24N 34°09' E 134°58'1011.3
2016-Dec-07 17:33N 34°13' E 135°09'0 0.0
2016-Dec-07 16:33N 34°13' E 135°09'0 0.0
2016-Dec-07 15:34N 34°13' E 135°09'7 6.6
2016-Dec-07 14:33N 34°11' E 135°01'10 3.4
2016-Dec-07 11:27N 34°07' E 134°49'1314.7
2016-Dec-07 10:34N 34°12' E 135°04'4 3.9
2016-Dec-07 09:33N 34°13' E 135°09'19 5.6
2016-Dec-07 06:05N 34°06' E 134°47'1114.4
2016-Dec-07 05:21N 34°10' E 134°58'911.2
2016-Dec-07 04:34N 34°13' E 135°09'6 6.0
2016-Dec-07 03:33N 34°12' E 135°02'4 1.3
2016-Dec-07 00:13N 34°09' E 134°57'1014.8
2016-Dec-06 23:33N 34°13' E 135°08'1 1.4
2016-Dec-06 22:33N 34°13' E 135°06'7 1.6
2016-Dec-06 18:21N 34°11' E 134°58'910.8
2016-Dec-06 17:33N 34°13' E 135°09'0 0.0
2016-Dec-06 16:33N 34°13' E 135°09'0 0.0
2016-Dec-06 15:33N 34°13' E 135°09'7 6.5
2016-Dec-06 14:34N 34°11' E 135°01'2 0.6
2016-Dec-06 10:33N 34°12' E 135°04'4 3.9
2016-Dec-06 09:33N 34°13' E 135°08'20 5.9
2016-Dec-06 06:09N 34°06' E 134°46'1014.0
2016-Dec-06 05:25N 34°10' E 134°57'1011.6
2016-Dec-06 04:33N 34°13' E 135°09'6 6.3
2016-Dec-06 03:33N 34°11' E 135°01'6 2.0
2016-Dec-06 00:23N 34°09' E 134°54'1315.3
2016-Dec-05 23:33N 34°13' E 135°09'1 1.1
2016-Dec-05 22:34N 34°13' E 135°07'19 5.6
2016-Dec-05 19:11N 34°06' E 134°46'913.5
2016-Dec-05 18:31N 34°09' E 134°56'1111.4
2016-Dec-05 17:33N 34°13' E 135°09'0 0.0
2016-Dec-05 16:33N 34°13' E 135°09'0 0.0
2016-Dec-05 15:33N 34°13' E 135°09'7 6.6
2016-Dec-05 14:33N 34°11' E 135°01'11 3.4
2016-Dec-05 11:28N 34°07' E 134°49'1314.9
2016-Dec-05 10:33N 34°13' E 135°04'4 3.7
2016-Dec-05 09:34N 34°13' E 135°09'10 2.3
2016-Dec-05 05:24N 34°10' E 134°57'1011.4
2016-Dec-05 04:33N 34°13' E 135°09'6 5.6
2016-Dec-05 03:33N 34°11' E 135°02'4 1.3
2016-Dec-05 00:14N 34°10' E 134°57'1014.3
2016-Dec-04 23:33N 34°13' E 135°08'2 2.1
2016-Dec-04 22:33N 34°13' E 135°06'21 6.7
2016-Dec-04 19:25N 34°04' E 134°43'1213.3
2016-Dec-04 18:30N 34°09' E 134°56'1111.6
2016-Dec-04 17:33N 34°13' E 135°09'0 0.0
2016-Dec-04 16:33N 34°13' E 135°09'0 0.0
2016-Dec-04 15:33N 34°13' E 135°09'7 6.6
2016-Dec-04 14:33N 34°11' E 135°01'12 3.8
2016-Dec-04 11:31N 34°06' E 134°48'1414.7
2016-Dec-04 10:33N 34°12' E 135°04'4 4.2
2016-Dec-04 09:34N 34°13' E 135°09'21 6.2
2016-Dec-04 06:13N 34°06' E 134°45'1013.4
2016-Dec-04 05:27N 34°10' E 134°57'1011.7
2016-Dec-04 04:33N 34°13' E 135°09'6 5.8
2016-Dec-04 03:33N 34°11' E 135°02'10 3.2
2016-Dec-04 00:33N 34°08' E 134°51'1515.2
2016-Dec-03 23:33N 34°13' E 135°08'2 1.6
2016-Dec-03 22:33N 34°13' E 135°06'19 5.6
2016-Dec-03 19:10N 34°06' E 134°45'914.2
2016-Dec-03 18:32N 34°09' E 134°55'1212.0
2016-Dec-03 17:34N 34°13' E 135°09'0 0.0
2016-Dec-03 16:33N 34°13' E 135°09'0 0.0
2016-Dec-03 15:33N 34°13' E 135°09'6 5.7
2016-Dec-03 14:33N 34°12' E 135°02'11 3.5
2016-Dec-03 11:26N 34°08' E 134°50'1314.6
2016-Dec-03 10:34N 34°12' E 135°04'4 3.9
2016-Dec-03 09:33N 34°13' E 135°09'12 2.9
2016-Dec-03 05:31N 34°08' E 134°56'1212.0
2016-Dec-03 04:33N 34°13' E 135°09'6 5.9
2016-Dec-03 03:33N 34°11' E 135°02'6 1.8
2016-Dec-03 00:18N 34°09' E 134°55'1115.2
2016-Dec-02 23:33N 34°13' E 135°08'2 2.1
2016-Dec-02 22:33N 34°13' E 135°06'9 2.1
2016-Dec-02 18:31N 34°10' E 134°56'1111.5
2016-Dec-02 17:33N 34°13' E 135°09'0 0.0
2016-Dec-02 16:33N 34°13' E 135°09'0 0.0
2016-Dec-02 15:33N 34°13' E 135°09'7 6.7
2016-Dec-02 14:28N 34°11' E 135°00'4 1.1
2016-Dec-02 11:04N 34°10' E 134°56'714.6
2016-Dec-02 10:33N 34°12' E 135°04'4 3.7
2016-Dec-02 09:33N 34°13' E 135°09'20 6.0
2016-Dec-02 06:11N 34°06' E 134°46'1014.7
2016-Dec-02 05:29N 34°10' E 134°57'1010.8
2016-Dec-02 04:33N 34°13' E 135°09'6 5.7
2016-Dec-02 03:33N 34°12' E 135°02'2 0.7
2016-Dec-02 00:03N 34°11' E 134°59'714.9
2016-Dec-01 23:34N 34°13' E 135°08'2 1.8
2016-Dec-01 22:33N 34°12' E 135°06'8 1.9
2016-Dec-01 18:25N 34°09' E 134°57'1011.7
2016-Dec-01 17:33N 34°13' E 135°09'0 0.0
2016-Dec-01 16:34N 34°13' E 135°09'0 0.0
2016-Dec-01 15:33N 34°13' E 135°09'7 6.8
2016-Dec-01 14:33N 34°11' E 135°01'11 3.7
2016-Dec-01 11:32N 34°07' E 134°48'1414.4
2016-Dec-01 10:33N 34°12' E 135°04'4 4.0
2016-Dec-01 09:34N 34°13' E 135°09'10 2.6
2016-Dec-01 05:29N 34°09' E 134°57'1011.3
2016-Dec-01 04:34N 34°13' E 135°09'6 6.3
2016-Dec-01 03:33N 34°11' E 135°01'6 1.9
2016-Dec-01 00:20N 34°08' E 134°55'1215.3
2016-Nov-30 23:33N 34°13' E 135°08'1 1.5
2016-Nov-30 22:33N 34°13' E 135°06'9 2.2
2016-Nov-30 18:30N 34°09' E 134°56'1111.6
2016-Nov-30 17:33N 34°13' E 135°09'0 0.0
2016-Nov-30 16:33N 34°13' E 135°09'0 0.0
2016-Nov-30 15:33N 34°13' E 135°09'6 5.8
2016-Nov-30 14:33N 34°11' E 135°02'12 3.8
2016-Nov-30 11:30N 34°07' E 134°49'1414.7
2016-Nov-30 10:33N 34°12' E 135°04'4 3.9
2016-Nov-30 09:33N 34°13' E 135°09'10 2.3
2016-Nov-30 05:25N 34°10' E 134°57'1011.2
2016-Nov-30 04:33N 34°13' E 135°09'6 6.4
2016-Nov-30 03:33N 34°11' E 135°01'2 0.5
2016-Nov-30 00:03N 34°11' E 134°59'815.1
2016-Nov-29 23:34N 34°13' E 135°08'1 1.0
2016-Nov-29 22:33N 34°13' E 135°07'  

Dump ship's entire track history